EZY16YV EGAC-EGCC
Flight info
| Callsign | EZY16YV |
|---|---|
| Flight time | 0h 37m |
| Altitude | 19000 |
| Route | DUFFY L15 PEPOD Q38 MAKUX |
| Aircraft | A320/M-SDE2E3FGHIJ1RWXYZ/LB1 |
Departure
| Time | 2026-05-08 14:05 |
|---|---|
| Airport | George Best Belfast City Airport (EGAC) |
Arrival
| Time | 2026-05-08 14:42 |
|---|---|
| Airport | Manchester Airport (EGCC) |
| Time | Latitude | Longitude | Altitude | Speed | Heading |
|---|---|---|---|---|---|
| 2026-05-08 13:15 | 54.61433 | -5.87219 | 21 ft | 0 kts | 124° |
| 2026-05-08 13:58 | 54.61438 | -5.87231 | 21 ft | 4 kts | 127° |
| 2026-05-08 13:59 | 54.61456 | -5.87265 | 22 ft | 4 kts | 147° |
| 2026-05-08 13:59 | 54.61479 | -5.87280 | 23 ft | 4 kts | 191° |
| 2026-05-08 13:59 | 54.61491 | -5.87271 | 24 ft | 1 kts | 214° |
| 2026-05-08 13:59 | 54.61493 | -5.87269 | 23 ft | 0 kts | 214° |
| 2026-05-08 14:02 | 54.61474 | -5.87293 | 23 ft | 4 kts | 214° |
| 2026-05-08 14:02 | 54.61458 | -5.87311 | 21 ft | 4 kts | 214° |
| 2026-05-08 14:02 | 54.61427 | -5.87352 | 21 ft | 7 kts | 221° |
| 2026-05-08 14:02 | 54.61396 | -5.87419 | 21 ft | 10 kts | 234° |
| 2026-05-08 14:03 | 54.61329 | -5.87511 | 20 ft | 13 kts | 214° |
| 2026-05-08 14:03 | 54.61252 | -5.87604 | 17 ft | 14 kts | 215° |
| 2026-05-08 14:03 | 54.61171 | -5.87702 | 16 ft | 14 kts | 215° |
| 2026-05-08 14:03 | 54.61102 | -5.87785 | 19 ft | 10 kts | 222° |
| 2026-05-08 14:04 | 54.61086 | -5.87892 | 18 ft | 10 kts | 281° |
| 2026-05-08 14:04 | 54.61117 | -5.87987 | 18 ft | 8 kts | 304° |
| 2026-05-08 14:04 | 54.61148 | -5.88048 | 18 ft | 4 kts | 350° |
| 2026-05-08 14:04 | 54.61169 | -5.88022 | 18 ft | 6 kts | 37° |
| 2026-05-08 14:05 | 54.61397 | -5.87745 | 14 ft | 79 kts | 34° |
| 2026-05-08 14:05 | 54.62027 | -5.86987 | 35 ft | 137 kts | 35° |
| 2026-05-08 14:05 | 54.62819 | -5.86000 | 652 ft | 140 kts | 34° |
| 2026-05-08 14:05 | 54.63630 | -5.85032 | 1371 ft | 147 kts | 32° |
| 2026-05-08 14:06 | 54.64499 | -5.83883 | 1794 ft | 170 kts | 48° |
| 2026-05-08 14:06 | 54.64806 | -5.81841 | 2271 ft | 190 kts | 96° |
| 2026-05-08 14:06 | 54.64144 | -5.79828 | 2844 ft | 204 kts | 141° |
| 2026-05-08 14:06 | 54.62818 | -5.78702 | 3238 ft | 225 kts | 160° |
| 2026-05-08 14:07 | 54.61262 | -5.77728 | 3657 ft | 250 kts | 160° |
| 2026-05-08 14:07 | 54.59561 | -5.76712 | 4350 ft | 264 kts | 161° |
| 2026-05-08 14:07 | 54.57812 | -5.75672 | 5333 ft | 267 kts | 161° |
| 2026-05-08 14:07 | 54.56052 | -5.74617 | 6355 ft | 269 kts | 162° |
| 2026-05-08 14:08 | 54.54280 | -5.73546 | 7338 ft | 270 kts | 162° |
| 2026-05-08 14:08 | 54.52498 | -5.72460 | 8283 ft | 273 kts | 162° |
| 2026-05-08 14:08 | 54.50698 | -5.71357 | 9224 ft | 276 kts | 162° |
| 2026-05-08 14:08 | 54.48885 | -5.70241 | 10169 ft | 278 kts | 162° |
| 2026-05-08 14:09 | 54.47003 | -5.69086 | 10632 ft | 298 kts | 162° |
| 2026-05-08 14:09 | 54.44988 | -5.67853 | 11097 ft | 314 kts | 162° |
| 2026-05-08 14:09 | 54.42903 | -5.66574 | 11851 ft | 320 kts | 163° |
| 2026-05-08 14:09 | 54.40792 | -5.65279 | 12654 ft | 325 kts | 163° |
| 2026-05-08 14:10 | 54.38650 | -5.63965 | 13459 ft | 328 kts | 163° |
| 2026-05-08 14:10 | 54.36486 | -5.62642 | 14205 ft | 332 kts | 163° |
| 2026-05-08 14:10 | 54.34296 | -5.61305 | 14894 ft | 336 kts | 163° |
| 2026-05-08 14:10 | 54.32087 | -5.59958 | 15602 ft | 338 kts | 163° |
| 2026-05-08 14:11 | 54.29866 | -5.58571 | 16305 ft | 342 kts | 160° |
| 2026-05-08 14:11 | 54.27761 | -5.56602 | 17003 ft | 349 kts | 148° |
| 2026-05-08 14:11 | 54.25908 | -5.53842 | 17705 ft | 358 kts | 136° |
| 2026-05-08 14:11 | 54.24377 | -5.50434 | 18389 ft | 364 kts | 129° |
| 2026-05-08 14:12 | 54.22899 | -5.46895 | 18902 ft | 368 kts | 130° |
| 2026-05-08 14:12 | 54.21400 | -5.43341 | 19074 ft | 369 kts | 130° |
| 2026-05-08 14:12 | 54.19921 | -5.39847 | 19115 ft | 355 kts | 130° |
| 2026-05-08 14:12 | 54.18495 | -5.36476 | 19121 ft | 347 kts | 130° |
| 2026-05-08 14:13 | 54.17082 | -5.33148 | 19129 ft | 345 kts | 131° |
| 2026-05-08 14:13 | 54.15672 | -5.29836 | 19115 ft | 345 kts | 130° |
| 2026-05-08 14:13 | 54.14260 | -5.26525 | 19126 ft | 345 kts | 130° |
| 2026-05-08 14:13 | 54.12848 | -5.23214 | 19106 ft | 345 kts | 130° |
| 2026-05-08 14:14 | 54.11438 | -5.19903 | 19120 ft | 345 kts | 130° |
| 2026-05-08 14:14 | 54.10025 | -5.16594 | 19123 ft | 345 kts | 130° |
| 2026-05-08 14:14 | 54.08614 | -5.13294 | 19121 ft | 345 kts | 130° |
| 2026-05-08 14:14 | 54.07203 | -5.09997 | 19121 ft | 345 kts | 130° |
| 2026-05-08 14:15 | 54.05809 | -5.06739 | 19120 ft | 345 kts | 130° |
| 2026-05-08 14:15 | 54.04376 | -5.03396 | 19115 ft | 345 kts | 130° |
| 2026-05-08 14:15 | 54.02962 | -5.00106 | 19119 ft | 345 kts | 130° |
| 2026-05-08 14:15 | 54.01543 | -4.96816 | 19119 ft | 345 kts | 130° |
| 2026-05-08 14:16 | 54.00121 | -4.93527 | 19125 ft | 345 kts | 130° |
| 2026-05-08 14:16 | 53.98701 | -4.90244 | 19125 ft | 345 kts | 130° |
| 2026-05-08 14:16 | 53.97283 | -4.86957 | 19125 ft | 345 kts | 130° |
| 2026-05-08 14:16 | 53.95864 | -4.83674 | 19126 ft | 345 kts | 130° |
| 2026-05-08 14:17 | 53.94446 | -4.80394 | 19109 ft | 345 kts | 130° |
| 2026-05-08 14:17 | 53.93025 | -4.77117 | 19110 ft | 345 kts | 130° |
| 2026-05-08 14:17 | 53.91604 | -4.73844 | 19111 ft | 345 kts | 130° |
| 2026-05-08 14:17 | 53.90200 | -4.70616 | 19088 ft | 345 kts | 130° |
| 2026-05-08 14:18 | 53.88775 | -4.67349 | 19095 ft | 345 kts | 130° |
| 2026-05-08 14:18 | 53.87349 | -4.64085 | 19096 ft | 345 kts | 130° |
| 2026-05-08 14:18 | 53.85920 | -4.60818 | 19099 ft | 345 kts | 130° |
| 2026-05-08 14:18 | 53.84489 | -4.57551 | 19093 ft | 345 kts | 130° |
| 2026-05-08 14:19 | 53.83058 | -4.54288 | 19095 ft | 345 kts | 130° |
| 2026-05-08 14:19 | 53.81626 | -4.51027 | 19097 ft | 346 kts | 130° |
| 2026-05-08 14:19 | 53.80189 | -4.47759 | 19097 ft | 346 kts | 130° |
| 2026-05-08 14:19 | 53.78755 | -4.44495 | 19099 ft | 346 kts | 130° |
| 2026-05-08 14:20 | 53.77320 | -4.41227 | 19103 ft | 346 kts | 130° |
| 2026-05-08 14:20 | 53.75882 | -4.37961 | 19106 ft | 346 kts | 130° |
| 2026-05-08 14:20 | 53.74443 | -4.34707 | 19106 ft | 346 kts | 130° |
| 2026-05-08 14:20 | 53.73004 | -4.31457 | 19107 ft | 346 kts | 130° |
| 2026-05-08 14:21 | 53.71564 | -4.28208 | 19108 ft | 346 kts | 130° |
| 2026-05-08 14:21 | 53.70124 | -4.24959 | 19110 ft | 346 kts | 130° |
| 2026-05-08 14:21 | 53.68683 | -4.21710 | 19110 ft | 346 kts | 130° |
| 2026-05-08 14:21 | 53.67242 | -4.18469 | 19109 ft | 345 kts | 130° |
| 2026-05-08 14:22 | 53.65801 | -4.15233 | 19086 ft | 345 kts | 130° |
| 2026-05-08 14:22 | 53.64362 | -4.11995 | 19089 ft | 345 kts | 130° |
| 2026-05-08 14:22 | 53.63090 | -4.08555 | 19091 ft | 349 kts | 119° |
| 2026-05-08 14:22 | 53.62146 | -4.04778 | 19092 ft | 350 kts | 115° |
| 2026-05-08 14:23 | 53.61222 | -4.00983 | 19093 ft | 350 kts | 116° |
| 2026-05-08 14:23 | 53.60290 | -3.97198 | 19094 ft | 350 kts | 116° |
| 2026-05-08 14:23 | 53.59354 | -3.93420 | 19097 ft | 350 kts | 116° |
| 2026-05-08 14:23 | 53.58414 | -3.89645 | 19098 ft | 350 kts | 116° |
| 2026-05-08 14:24 | 53.57474 | -3.85869 | 19096 ft | 350 kts | 116° |
| 2026-05-08 14:24 | 53.56508 | -3.82003 | 19100 ft | 367 kts | 116° |
| 2026-05-08 14:24 | 53.55509 | -3.78015 | 19098 ft | 372 kts | 116° |
| 2026-05-08 14:24 | 53.54504 | -3.73991 | 19098 ft | 374 kts | 116° |
| 2026-05-08 14:25 | 53.53499 | -3.69964 | 19101 ft | 374 kts | 116° |
| 2026-05-08 14:25 | 53.52493 | -3.65927 | 19100 ft | 374 kts | 116° |
| 2026-05-08 14:25 | 53.51489 | -3.61898 | 19099 ft | 374 kts | 116° |
| 2026-05-08 14:25 | 53.50482 | -3.57881 | 19096 ft | 371 kts | 116° |
| 2026-05-08 14:26 | 53.49501 | -3.53971 | 18620 ft | 358 kts | 116° |
| 2026-05-08 14:26 | 53.48542 | -3.50158 | 17841 ft | 352 kts | 116° |
| 2026-05-08 14:26 | 53.47593 | -3.46400 | 17033 ft | 347 kts | 116° |
| 2026-05-08 14:26 | 53.46656 | -3.42700 | 16252 ft | 342 kts | 116° |
| 2026-05-08 14:27 | 53.45732 | -3.39056 | 15507 ft | 338 kts | 116° |
| 2026-05-08 14:27 | 53.44811 | -3.35441 | 14836 ft | 337 kts | 116° |
| 2026-05-08 14:27 | 53.43894 | -3.31845 | 14493 ft | 334 kts | 115° |
| 2026-05-08 14:27 | 53.42985 | -3.28282 | 14130 ft | 331 kts | 115° |
| 2026-05-08 14:28 | 53.42083 | -3.24744 | 13736 ft | 329 kts | 115° |
| 2026-05-08 14:28 | 53.41187 | -3.21234 | 13319 ft | 326 kts | 115° |
| 2026-05-08 14:28 | 53.40348 | -3.17710 | 12902 ft | 325 kts | 108° |
| 2026-05-08 14:28 | 53.40052 | -3.13970 | 12501 ft | 326 kts | 90° |
| 2026-05-08 14:29 | 53.40462 | -3.10271 | 12275 ft | 321 kts | 71° |
| 2026-05-08 14:29 | 53.41441 | -3.06979 | 12095 ft | 313 kts | 61° |
| 2026-05-08 14:29 | 53.42527 | -3.03848 | 11781 ft | 309 kts | 61° |
| 2026-05-08 14:29 | 53.43609 | -3.00742 | 11428 ft | 307 kts | 61° |
| 2026-05-08 14:30 | 53.44681 | -2.97663 | 11107 ft | 304 kts | 62° |
| 2026-05-08 14:30 | 53.45743 | -2.94603 | 10745 ft | 303 kts | 62° |
| 2026-05-08 14:30 | 53.46795 | -2.91560 | 10401 ft | 300 kts | 61° |
| 2026-05-08 14:30 | 53.47838 | -2.88539 | 10070 ft | 298 kts | 62° |
| 2026-05-08 14:31 | 53.48868 | -2.85553 | 9483 ft | 293 kts | 62° |
| 2026-05-08 14:31 | 53.49885 | -2.82602 | 8807 ft | 290 kts | 62° |
| 2026-05-08 14:31 | 53.50889 | -2.79684 | 8156 ft | 289 kts | 63° |
| 2026-05-08 14:32 | 53.52840 | -2.73992 | 7780 ft | 270 kts | 63° |
| 2026-05-08 14:32 | 53.53570 | -2.71086 | 7240 ft | 272 kts | 77° |
| 2026-05-08 14:32 | 53.53922 | -2.67970 | 6812 ft | 271 kts | 84° |
| 2026-05-08 14:32 | 53.54118 | -2.64840 | 6420 ft | 269 kts | 89° |
| 2026-05-08 14:33 | 53.54227 | -2.61720 | 6105 ft | 266 kts | 87° |
| 2026-05-08 14:33 | 53.54439 | -2.58617 | 6093 ft | 268 kts | 84° |
| 2026-05-08 14:33 | 53.54669 | -2.55497 | 6098 ft | 270 kts | 85° |
| 2026-05-08 14:33 | 53.54901 | -2.52364 | 6103 ft | 270 kts | 85° |
| 2026-05-08 14:34 | 53.55134 | -2.49233 | 6099 ft | 270 kts | 85° |
| 2026-05-08 14:34 | 53.55369 | -2.46101 | 6095 ft | 270 kts | 85° |
| 2026-05-08 14:34 | 53.55602 | -2.42963 | 6094 ft | 270 kts | 85° |
| 2026-05-08 14:34 | 53.55835 | -2.39825 | 6096 ft | 270 kts | 85° |
| 2026-05-08 14:35 | 53.56070 | -2.36688 | 6100 ft | 270 kts | 85° |
| 2026-05-08 14:35 | 53.56301 | -2.33558 | 6100 ft | 270 kts | 85° |
| 2026-05-08 14:35 | 53.56531 | -2.30419 | 6073 ft | 271 kts | 85° |
| 2026-05-08 14:35 | 53.56764 | -2.27276 | 5878 ft | 270 kts | 85° |
| 2026-05-08 14:36 | 53.56997 | -2.24148 | 5698 ft | 269 kts | 85° |
| 2026-05-08 14:36 | 53.57226 | -2.21027 | 5515 ft | 268 kts | 85° |
| 2026-05-08 14:36 | 53.57453 | -2.17917 | 5339 ft | 267 kts | 86° |
| 2026-05-08 14:36 | 53.57296 | -2.14878 | 5141 ft | 257 kts | 112° |
| 2026-05-08 14:37 | 53.56352 | -2.12451 | 4918 ft | 244 kts | 136° |
| 2026-05-08 14:37 | 53.55134 | -2.10532 | 4682 ft | 236 kts | 140° |
| 2026-05-08 14:37 | 53.53911 | -2.08713 | 4445 ft | 234 kts | 140° |
| 2026-05-08 14:37 | 53.52690 | -2.06911 | 4200 ft | 233 kts | 140° |
| 2026-05-08 14:38 | 53.51476 | -2.05122 | 3965 ft | 232 kts | 142° |
| 2026-05-08 14:38 | 53.50115 | -2.03796 | 3848 ft | 222 kts | 163° |
| 2026-05-08 14:38 | 53.48607 | -2.03448 | 3745 ft | 219 kts | 184° |
| 2026-05-08 14:38 | 53.47136 | -2.04061 | 3572 ft | 220 kts | 205° |
| 2026-05-08 14:39 | 53.45905 | -2.05592 | 3340 ft | 223 kts | 227° |
| 2026-05-08 14:39 | 53.44922 | -2.07617 | 3055 ft | 225 kts | 229° |
| 2026-05-08 14:39 | 53.43945 | -2.09673 | 2746 ft | 226 kts | 230° |
| 2026-05-08 14:39 | 53.42973 | -2.11707 | 2428 ft | 218 kts | 228° |
| 2026-05-08 14:40 | 53.42059 | -2.13613 | 2147 ft | 207 kts | 228° |
| 2026-05-08 14:40 | 53.41165 | -2.15473 | 1880 ft | 196 kts | 230° |
| 2026-05-08 14:40 | 53.40339 | -2.17192 | 1613 ft | 184 kts | 230° |
| 2026-05-08 14:40 | 53.39559 | -2.18812 | 1370 ft | 172 kts | 230° |
| 2026-05-08 14:41 | 53.38856 | -2.20274 | 1148 ft | 152 kts | 230° |
| 2026-05-08 14:41 | 53.38215 | -2.21604 | 942 ft | 143 kts | 230° |
| 2026-05-08 14:41 | 53.37601 | -2.22877 | 754 ft | 138 kts | 230° |
| 2026-05-08 14:41 | 53.36999 | -2.24123 | 572 ft | 137 kts | 230° |
| 2026-05-08 14:42 | 53.36409 | -2.25351 | 377 ft | 135 kts | 230° |
| 2026-05-08 14:42 | 53.35828 | -2.26550 | 275 ft | 125 kts | 229° |
| 2026-05-08 14:42 | 53.35404 | -2.27435 | 243 ft | 50 kts | 231° |
| 2026-05-08 14:42 | 53.35268 | -2.27811 | 237 ft | 35 kts | 253° |
| 2026-05-08 14:43 | 53.35235 | -2.28129 | 231 ft | 16 kts | 261° |
| 2026-05-08 14:43 | 53.35292 | -2.28195 | 234 ft | 10 kts | 8° |
| 2026-05-08 14:43 | 53.35381 | -2.28167 | 236 ft | 19 kts | 7° |
| 2026-05-08 14:43 | 53.35521 | -2.28099 | 235 ft | 19 kts | 34° |
| 2026-05-08 14:44 | 53.35594 | -2.27964 | 239 ft | 13 kts | 50° |
| 2026-05-08 14:44 | 53.35665 | -2.27887 | 243 ft | 13 kts | 14° |
| 2026-05-08 14:44 | 53.35757 | -2.27872 | 248 ft | 13 kts | 5° |
| 2026-05-08 14:44 | 53.35830 | -2.27859 | 252 ft | 12 kts | 6° |
| 2026-05-08 14:45 | 53.35954 | -2.27860 | 255 ft | 18 kts | 340° |
| 2026-05-08 14:45 | 53.36049 | -2.27983 | 255 ft | 17 kts | 319° |
| 2026-05-08 14:45 | 53.36105 | -2.28066 | 255 ft | 15 kts | 317° |
| 2026-05-08 14:45 | 53.36183 | -2.28155 | 255 ft | 13 kts | 359° |
| 2026-05-08 14:46 | 53.36254 | -2.28088 | 255 ft | 11 kts | 30° |
| 2026-05-08 14:46 | 53.36322 | -2.28040 | 255 ft | 10 kts | 27° |
| 2026-05-08 14:46 | 53.36372 | -2.27970 | 255 ft | 9 kts | 45° |
| 2026-05-08 14:46 | 53.36394 | -2.27887 | 255 ft | 7 kts | 97° |
| 2026-05-08 14:47 | 53.36361 | -2.27813 | 255 ft | 10 kts | 134° |
| 2026-05-08 14:47 | 53.36333 | -2.27714 | 255 ft | 9 kts | 107° |
| 2026-05-08 14:47 | 53.36351 | -2.27654 | 255 ft | 6 kts | 20° |
| 2026-05-08 14:47 | 53.36390 | -2.27635 | 255 ft | 1 kts | 13° |